KCHK/CHK METAR and TAF weather

Enter ICAO airport designator
Station Type Date Time Source
KCHK METAR 2022/01/26 08:15 UTC NOAA

KCHK 260815Z AUTO 04011KT 10SM OVC100 M03/M17 A3039 RMK AO2 T10271174


Station Type Date Time Source
KCHK Decoded METAR 2022/01/26 08:15 UTC NOAA

Chickasha, Chickasha Municipal Airport, OK, United States (KCHK) 35-05-46N 097-57-58W
Jan 26, 2022 - 03:15 AM EST / 2022.01.26 0815 UTC
Wind: from the NE (040 degrees) at 13 MPH (11 KT):0
Visibility: 10 mile(s):0
Sky conditions: overcast
Temperature: 27.1 F (-2.7 C)
Windchill: 15 F (-9 C):1
Dew Point: 0.7 F (-17.4 C)
Relative Humidity: 31%
Pressure (altimeter): 30.39 in. Hg (1029 hPa)
ob: KCHK 260815Z AUTO 04011KT 10SM OVC100 M03/M17 A3039 RMK AO2 T10271174
cycle: 8

Station Type Date Time Source
KCHK TAF UTC NOAA

Error!

Example: see airport list